sensor_id;sensor_type;location;lat;lon;timestamp;pressure;altitude;pressure_sealevel;temperature;humidity
70323;BME280;57735;56.264;43.898;2023-02-07T00:01:41;102698.00;;;-5.40;68.90
70323;BME280;57735;56.264;43.898;2023-02-07T00:04:12;102699.69;;;-5.45;68.91
70323;BME280;57735;56.264;43.898;2023-02-07T00:06:45;102692.75;;;-5.53;69.40
70323;BME280;57735;56.264;43.898;2023-02-07T00:09:16;102694.47;;;-5.57;69.55
70323;BME280;57735;56.264;43.898;2023-02-07T00:11:46;102701.41;;;-5.56;69.78
70323;BME280;57735;56.264;43.898;2023-02-07T00:14:17;102704.88;;;-5.55;69.68
70323;BME280;57735;56.264;43.898;2023-02-07T00:16:48;102711.78;;;-5.50;69.58
70323;BME280;57735;56.264;43.898;2023-02-07T00:19:19;102708.34;;;-5.49;69.29
70323;BME280;57735;56.264;43.898;2023-02-07T00:21:50;102705.72;;;-5.50;69.38
70323;BME280;57735;56.264;43.898;2023-02-07T00:24:23;102709.22;;;-5.48;69.65
70323;BME280;57735;56.264;43.898;2023-02-07T00:26:54;102710.09;;;-5.46;69.46
70323;BME280;57735;56.264;43.898;2023-02-07T00:29:24;102712.69;;;-5.46;69.45
70323;BME280;57735;56.264;43.898;2023-02-07T00:31:57;102717.88;;;-5.45;69.78
70323;BME280;57735;56.264;43.898;2023-02-07T00:34:36;102707.47;;;-5.49;69.30
70323;BME280;57735;56.264;43.898;2023-02-07T00:37:07;102710.06;;;-5.54;69.81
70323;BME280;57735;56.264;43.898;2023-02-07T00:39:39;102713.53;;;-5.58;69.82
70323;BME280;57735;56.264;43.898;2023-02-07T00:42:10;102709.22;;;-5.54;69.79
70323;BME280;57735;56.264;43.898;2023-02-07T00:44:40;102710.94;;;-5.55;69.74
70323;BME280;57735;56.264;43.898;2023-02-07T00:47:11;102716.97;;;-5.53;69.88
70323;BME280;57735;56.264;43.898;2023-02-07T00:49:42;102707.47;;;-5.52;70.03
70323;BME280;57735;56.264;43.898;2023-02-07T00:52:13;102720.47;;;-5.54;70.06
70323;BME280;57735;56.264;43.898;2023-02-07T00:54:45;102716.13;;;-5.56;69.75
70323;BME280;57735;56.264;43.898;2023-02-07T00:57:16;102719.59;;;-5.56;69.87
70323;BME280;57735;56.264;43.898;2023-02-07T00:59:47;102723.03;;;-5.58;70.05
70323;BME280;57735;56.264;43.898;2023-02-07T01:02:17;102730.84;;;-5.57;70.05
70323;BME280;57735;56.264;43.898;2023-02-07T01:04:48;102717.84;;;-5.57;69.84
70323;BME280;57735;56.264;43.898;2023-02-07T01:07:19;102717.88;;;-5.55;70.00
70323;BME280;57735;56.264;43.898;2023-02-07T01:09:52;102719.59;;;-5.57;69.85
70323;BME280;57735;56.264;43.898;2023-02-07T01:12:23;102721.28;;;-5.61;69.96
70323;BME280;57735;56.264;43.898;2023-02-07T01:14:54;102718.69;;;-5.64;70.13
70323;BME280;57735;56.264;43.898;2023-02-07T01:17:24;102715.19;;;-5.68;70.14
70323;BME280;57735;56.264;43.898;2023-02-07T01:19:58;102716.09;;;-5.61;70.30
70323;BME280;57735;56.264;43.898;2023-02-07T01:22:29;102721.31;;;-5.58;70.17
70323;BME280;57735;56.264;43.898;2023-02-07T01:25:00;102716.09;;;-5.59;70.07
70323;BME280;57735;56.264;43.898;2023-02-07T01:27:31;102722.19;;;-5.57;69.93
70323;BME280;57735;56.264;43.898;2023-02-07T01:30:03;102729.13;;;-5.55;70.28
70323;BME280;57735;56.264;43.898;2023-02-07T01:32:34;102727.38;;;-5.51;69.98
70323;BME280;57735;56.264;43.898;2023-02-07T01:35:05;102730.00;;;-5.50;70.32
70323;BME280;57735;56.264;43.898;2023-02-07T01:37:36;102732.63;;;-5.45;69.96
70323;BME280;57735;56.264;43.898;2023-02-07T01:40:13;102731.75;;;-5.44;70.08
70323;BME280;57735;56.264;43.898;2023-02-07T01:42:44;102733.47;;;-5.45;69.91
70323;BME280;57735;56.264;43.898;2023-02-07T01:45:29;102730.03;;;-5.44;69.94
70323;BME280;57735;56.264;43.898;2023-02-07T01:48:26;102731.78;;;-5.41;69.94
70323;BME280;57735;56.264;43.898;2023-02-07T01:51:01;102731.75;;;-5.44;69.74
70323;BME280;57735;56.264;43.898;2023-02-07T01:53:36;102724.81;;;-5.47;69.95
70323;BME280;57735;56.264;43.898;2023-02-07T01:56:10;102741.25;;;-5.54;70.04
70323;BME280;57735;56.264;43.898;2023-02-07T01:58:42;102743.81;;;-5.58;69.97
70323;BME280;57735;56.264;43.898;2023-02-07T02:01:18;102731.66;;;-5.66;70.25
70323;BME280;57735;56.264;43.898;2023-02-07T02:03:52;102731.63;;;-5.69;70.29
70323;BME280;57735;56.264;43.898;2023-02-07T02:06:26;102745.47;;;-5.70;70.71
70323;BME280;57735;56.264;43.898;2023-02-07T02:08:59;102743.78;;;-5.65;70.63
70323;BME280;57735;56.264;43.898;2023-02-07T02:32:03;102785.41;;;-5.58;70.77
70323;BME280;57735;56.264;43.898;2023-02-07T02:40:36;102778.47;;;-5.56;70.59
70323;BME280;57735;56.264;43.898;2023-02-07T02:43:17;102773.28;;;-5.50;70.65
70323;BME280;57735;56.264;43.898;2023-02-07T02:45:55;102777.63;;;-5.49;70.50
70323;BME280;57735;56.264;43.898;2023-02-07T02:48:27;102775.91;;;-5.47;70.45
70323;BME280;57735;56.264;43.898;2023-02-07T02:50:58;102779.38;;;-5.48;70.41
70323;BME280;57735;56.264;43.898;2023-02-07T02:53:29;102781.09;;;-5.49;70.18
70323;BME280;57735;56.264;43.898;2023-02-07T03:05:11;102787.22;;;-5.38;69.96
70323;BME280;57735;56.264;43.898;2023-02-07T03:10:31;102799.34;;;-5.34;69.61
70323;BME280;57735;56.264;43.898;2023-02-07T03:16:28;102801.09;;;-5.31;69.72
70323;BME280;57735;56.264;43.898;2023-02-07T03:19:11;102789.84;;;-5.32;69.54
70323;BME280;57735;56.264;43.898;2023-02-07T03:21:57;102802.84;;;-5.30;69.49
70323;BME280;57735;56.264;43.898;2023-02-07T03:24:31;102796.75;;;-5.37;68.96
70323;BME280;57735;56.264;43.898;2023-02-07T03:27:04;102793.28;;;-5.39;69.36
70323;BME280;57735;56.264;43.898;2023-02-07T03:29:36;102799.34;;;-5.40;69.29
70323;BME280;57735;56.264;43.898;2023-02-07T03:32:10;102790.69;;;-5.37;69.46
70323;BME280;57735;56.264;43.898;2023-02-07T03:34:52;102799.38;;;-5.37;69.35
70323;BME280;57735;56.264;43.898;2023-02-07T03:37:43;102801.97;;;-5.31;69.28
70323;BME280;57735;56.264;43.898;2023-02-07T03:40:16;102798.50;;;-5.28;69.36
70323;BME280;57735;56.264;43.898;2023-02-07T03:45:19;102808.06;;;-5.27;69.21
70323;BME280;57735;56.264;43.898;2023-02-07T03:47:50;102807.19;;;-5.29;68.90
70323;BME280;57735;56.264;43.898;2023-02-07T03:50:21;102817.56;;;-5.32;68.87
70323;BME280;57735;56.264;43.898;2023-02-07T03:52:52;102812.34;;;-5.34;68.78
70323;BME280;57735;56.264;43.898;2023-02-07T03:55:23;102811.47;;;-5.34;68.86
70323;BME280;57735;56.264;43.898;2023-02-07T03:57:54;102814.06;;;-5.34;69.10
70323;BME280;57735;56.264;43.898;2023-02-07T04:00:27;102799.38;;;-5.29;68.97
70323;BME280;57735;56.264;43.898;2023-02-07T04:02:57;102810.66;;;-5.25;68.80
70323;BME280;57735;56.264;43.898;2023-02-07T04:05:28;102808.94;;;-5.23;68.40
70323;BME280;57735;56.264;43.898;2023-02-07T04:08:02;102810.66;;;-5.25;68.77
70323;BME280;57735;56.264;43.898;2023-02-07T04:10:32;102819.34;;;-5.20;68.74
70323;BME280;57735;56.264;43.898;2023-02-07T04:13:04;102827.13;;;-5.19;68.50
70323;BME280;57735;56.264;43.898;2023-02-07T04:15:34;102822.84;;;-5.12;68.60
70323;BME280;57735;56.264;43.898;2023-02-07T04:18:05;102830.63;;;-5.12;68.48
70323;BME280;57735;56.264;43.898;2023-02-07T04:20:36;102828.88;;;-5.18;67.86
70323;BME280;57735;56.264;43.898;2023-02-07T04:23:07;102833.22;;;-5.21;67.72
70323;BME280;57735;56.264;43.898;2023-02-07T04:25:37;102835.81;;;-5.23;67.75
70323;BME280;57735;56.264;43.898;2023-02-07T04:28:08;102836.66;;;-5.25;68.05
70323;BME280;57735;56.264;43.898;2023-02-07T04:30:41;102843.59;;;-5.24;68.11
70323;BME280;57735;56.264;43.898;2023-02-07T04:33:12;102856.59;;;-5.18;68.15
70323;BME280;57735;56.264;43.898;2023-02-07T04:35:43;102848.84;;;-5.12;67.86
70323;BME280;57735;56.264;43.898;2023-02-07T04:38:14;102851.44;;;-5.11;67.50
70323;BME280;57735;56.264;43.898;2023-02-07T04:40:44;102844.53;;;-5.09;67.46
70323;BME280;57735;56.264;43.898;2023-02-07T04:43:15;102846.25;;;-5.09;66.96
70323;BME280;57735;56.264;43.898;2023-02-07T04:45:46;102849.72;;;-5.12;66.72
70323;BME280;57735;56.264;43.898;2023-02-07T04:48:17;102848.84;;;-5.11;67.03
70323;BME280;57735;56.264;43.898;2023-02-07T04:50:48;102853.19;;;-5.02;67.37
70323;BME280;57735;56.264;43.898;2023-02-07T04:53:19;102848.91;;;-4.94;66.32
70323;BME280;57735;56.264;43.898;2023-02-07T04:55:51;102859.31;;;-4.93;65.99
70323;BME280;57735;56.264;43.898;2023-02-07T04:58:22;102853.25;;;-4.90;64.65
70323;BME280;57735;56.264;43.898;2023-02-07T05:00:56;102856.75;;;-4.83;64.24
70323;BME280;57735;56.264;43.898;2023-02-07T05:03:26;102867.16;;;-4.79;63.71
70323;BME280;57735;56.264;43.898;2023-02-07T05:05:57;102874.97;;;-4.77;63.59
70323;BME280;57735;56.264;43.898;2023-02-07T05:08:28;102875.00;;;-4.74;63.54
70323;BME280;57735;56.264;43.898;2023-02-07T05:10:59;102878.47;;;-4.68;63.97
70323;BME280;57735;56.264;43.898;2023-02-07T05:13:30;102893.22;;;-4.65;63.60
70323;BME280;57735;56.264;43.898;2023-02-07T05:16:02;102890.66;;;-4.58;63.80
70323;BME280;57735;56.264;43.898;2023-02-07T05:18:33;102895.84;;;-4.51;63.55
70323;BME280;57735;56.264;43.898;2023-02-07T05:21:04;102905.41;;;-4.49;63.25
70323;BME280;57735;56.264;43.898;2023-02-07T05:23:35;102908.88;;;-4.48;62.93
70323;BME280;57735;56.264;43.898;2023-02-07T05:26:06;102910.59;;;-4.49;62.68
70323;BME280;57735;56.264;43.898;2023-02-07T05:28:37;102908.00;;;-4.47;62.77
70323;BME280;57735;56.264;43.898;2023-02-07T05:31:08;102918.44;;;-4.44;63.15
70323;BME280;57735;56.264;43.898;2023-02-07T05:33:41;102912.38;;;-4.43;62.93
70323;BME280;57735;56.264;43.898;2023-02-07T05:36:11;102911.53;;;-4.39;61.94
70323;BME280;57735;56.264;43.898;2023-02-07T05:38:42;102921.94;;;-4.39;61.77
70323;BME280;57735;56.264;43.898;2023-02-07T05:41:13;102922.81;;;-4.36;62.11
70323;BME280;57735;56.264;43.898;2023-02-07T05:43:46;102926.25;;;-4.46;63.46
70323;BME280;57735;56.264;43.898;2023-02-07T05:46:17;102931.38;;;-4.67;64.36
70323;BME280;57735;56.264;43.898;2023-02-07T05:48:48;102922.66;;;-4.87;64.99
70323;BME280;57735;56.264;43.898;2023-02-07T05:51:19;102937.31;;;-4.97;65.55
70323;BME280;57735;56.264;43.898;2023-02-07T05:53:50;102930.34;;;-5.06;66.29
70323;BME280;57735;56.264;43.898;2023-02-07T05:56:22;102938.16;;;-5.06;66.68
70323;BME280;57735;56.264;43.898;2023-02-07T05:58:54;102944.22;;;-5.07;66.69
70323;BME280;57735;56.264;43.898;2023-02-07T06:01:25;102951.16;;;-5.06;67.33
70323;BME280;57735;56.264;43.898;2023-02-07T06:03:56;102941.63;;;-5.01;66.66
70323;BME280;57735;56.264;43.898;2023-02-07T06:06:27;102952.06;;;-4.96;66.75
70323;BME280;57735;56.264;43.898;2023-02-07T06:08:57;102951.25;;;-4.86;67.64
70323;BME280;57735;56.264;43.898;2023-02-07T06:11:28;102955.63;;;-4.77;67.17
70323;BME280;57735;56.264;43.898;2023-02-07T06:14:01;102949.59;;;-4.67;67.01
70323;BME280;57735;56.264;43.898;2023-02-07T06:16:37;102953.94;;;-4.63;66.59
70323;BME280;57735;56.264;43.898;2023-02-07T06:19:09;102946.13;;;-4.65;66.11
70323;BME280;57735;56.264;43.898;2023-02-07T06:21:41;102946.13;;;-4.65;66.15
70323;BME280;57735;56.264;43.898;2023-02-07T06:24:13;102960.03;;;-4.63;66.61
70323;BME280;57735;56.264;43.898;2023-02-07T06:26:45;102960.06;;;-4.50;66.50
70323;BME280;57735;56.264;43.898;2023-02-07T06:29:16;102969.63;;;-4.43;66.55
70323;BME280;57735;56.264;43.898;2023-02-07T06:31:47;102962.72;;;-4.41;66.24
70323;BME280;57735;56.264;43.898;2023-02-07T06:34:18;102975.72;;;-4.40;66.01
70323;BME280;57735;56.264;43.898;2023-02-07T06:36:48;102971.34;;;-4.45;66.20
70323;BME280;57735;56.264;43.898;2023-02-07T06:39:21;102978.28;;;-4.47;66.19
70323;BME280;57735;56.264;43.898;2023-02-07T06:41:52;102972.22;;;-4.49;66.34
70323;BME280;57735;56.264;43.898;2023-02-07T06:44:23;102973.94;;;-4.48;67.00
70323;BME280;57735;56.264;43.898;2023-02-07T06:46:54;102973.09;;;-4.46;66.48
70323;BME280;57735;56.264;43.898;2023-02-07T06:49:24;102986.16;;;-4.38;66.42
70323;BME280;57735;56.264;43.898;2023-02-07T06:51:55;102995.69;;;-4.34;66.49
70323;BME280;57735;56.264;43.898;2023-02-07T06:54:26;102988.78;;;-4.25;66.46
70323;BME280;57735;56.264;43.898;2023-02-07T06:56:57;102984.44;;;-4.18;66.03
70323;BME280;57735;56.264;43.898;2023-02-07T06:59:28;103001.84;;;-4.12;65.91
70323;BME280;57735;56.264;43.898;2023-02-07T07:01:59;103002.69;;;-4.15;65.86
70323;BME280;57735;56.264;43.898;2023-02-07T07:04:30;103013.09;;;-4.16;65.62
70323;BME280;57735;56.264;43.898;2023-02-07T07:07:00;103020.06;;;-4.15;65.65
70323;BME280;57735;56.264;43.898;2023-02-07T07:09:31;103022.66;;;-4.14;65.57
70323;BME280;57735;56.264;43.898;2023-02-07T07:12:02;103041.75;;;-4.24;65.42
70323;BME280;57735;56.264;43.898;2023-02-07T07:14:34;103046.00;;;-4.35;65.58
70323;BME280;57735;56.264;43.898;2023-02-07T07:17:05;103044.19;;;-4.51;65.90
70323;BME280;57735;56.264;43.898;2023-02-07T07:19:38;103046.78;;;-4.61;66.40
70323;BME280;57735;56.264;43.898;2023-02-07T07:22:20;103038.00;;;-4.76;67.14
70323;BME280;57735;56.264;43.898;2023-02-07T07:24:51;103045.84;;;-4.75;67.02
70323;BME280;57735;56.264;43.898;2023-02-07T07:27:22;103050.19;;;-4.72;66.75
70323;BME280;57735;56.264;43.898;2023-02-07T07:29:52;103045.88;;;-4.66;67.25
70323;BME280;57735;56.264;43.898;2023-02-07T07:32:23;103039.00;;;-4.54;66.96
70323;BME280;57735;56.264;43.898;2023-02-07T07:34:54;103055.56;;;-4.40;66.41
70323;BME280;57735;56.264;43.898;2023-02-07T07:37:25;103040.84;;;-4.31;65.70
70323;BME280;57735;56.264;43.898;2023-02-07T07:39:56;103038.25;;;-4.25;65.36
70323;BME280;57735;56.264;43.898;2023-02-07T07:42:26;103053.00;;;-4.25;64.85
70323;BME280;57735;56.264;43.898;2023-02-07T07:44:57;103039.13;;;-4.24;64.83
70323;BME280;57735;56.264;43.898;2023-02-07T07:47:28;103046.94;;;-4.23;64.68
70323;BME280;57735;56.264;43.898;2023-02-07T07:49:59;103046.06;;;-4.28;64.59
70323;BME280;57735;56.264;43.898;2023-02-07T07:52:32;103045.16;;;-4.34;64.43
70323;BME280;57735;56.264;43.898;2023-02-07T07:55:04;103046.06;;;-4.28;64.54
70323;BME280;57735;56.264;43.898;2023-02-07T07:57:35;103056.50;;;-4.22;64.35
70323;BME280;57735;56.264;43.898;2023-02-07T08:00:07;103057.38;;;-4.18;64.09
70323;BME280;57735;56.264;43.898;2023-02-07T08:02:41;103066.94;;;-4.22;64.22
70323;BME280;57735;56.264;43.898;2023-02-07T08:05:12;103063.53;;;-4.04;64.32
70323;BME280;57735;56.264;43.898;2023-02-07T08:07:43;103066.16;;;-3.89;63.85
70323;BME280;57735;56.264;43.898;2023-02-07T08:10:14;103062.69;;;-3.89;63.42
70323;BME280;57735;56.264;43.898;2023-02-07T08:12:44;103067.00;;;-3.97;63.00
70323;BME280;57735;56.264;43.898;2023-02-07T08:15:15;103068.72;;;-4.02;63.04
70323;BME280;57735;56.264;43.898;2023-02-07T08:17:49;103063.50;;;-4.05;63.07
70323;BME280;57735;56.264;43.898;2023-02-07T08:20:21;103068.66;;;-4.14;63.27
70323;BME280;57735;56.264;43.898;2023-02-07T08:22:53;103072.13;;;-4.17;63.18
70323;BME280;57735;56.264;43.898;2023-02-07T08:25:25;103065.16;;;-4.26;62.44
70323;BME280;57735;56.264;43.898;2023-02-07T08:27:55;103070.31;;;-4.35;62.77
70323;BME280;57735;56.264;43.898;2023-02-07T08:30:26;103065.97;;;-4.40;62.86
70323;BME280;57735;56.264;43.898;2023-02-07T08:32:57;103070.31;;;-4.38;63.37
70323;BME280;57735;56.264;43.898;2023-02-07T08:35:28;103069.41;;;-4.44;63.01
70323;BME280;57735;56.264;43.898;2023-02-07T08:38:01;103073.72;;;-4.52;62.87
70323;BME280;57735;56.264;43.898;2023-02-07T08:40:33;103067.59;;;-4.61;63.19
70323;BME280;57735;56.264;43.898;2023-02-07T08:43:03;103061.56;;;-4.57;62.76
70323;BME280;57735;56.264;43.898;2023-02-07T08:45:38;103065.97;;;-4.40;62.89
70323;BME280;57735;56.264;43.898;2023-02-07T08:48:09;103075.59;;;-4.24;62.70
70323;BME280;57735;56.264;43.898;2023-02-07T08:50:43;103078.25;;;-4.09;61.77
70323;BME280;57735;56.264;43.898;2023-02-07T08:53:14;103070.44;;;-4.01;61.42
70323;BME280;57735;56.264;43.898;2023-02-07T08:55:45;103080.03;;;-3.96;60.96
70323;BME280;57735;56.264;43.898;2023-02-07T08:58:16;103072.25;;;-3.80;60.73
70323;BME280;57735;56.264;43.898;2023-02-07T09:00:47;103074.88;;;-3.67;59.81
70323;BME280;57735;56.264;43.898;2023-02-07T09:03:18;103074.03;;;-3.60;59.62
70323;BME280;57735;56.264;43.898;2023-02-07T09:05:48;103074.06;;;-3.54;59.77
70323;BME280;57735;56.264;43.898;2023-02-07T09:08:19;103077.53;;;-3.58;59.79
70323;BME280;57735;56.264;43.898;2023-02-07T09:10:50;103080.09;;;-3.65;60.28
70323;BME280;57735;56.264;43.898;2023-02-07T09:13:21;103075.78;;;-3.60;60.24
70323;BME280;57735;56.264;43.898;2023-02-07T09:15:56;103076.66;;;-3.54;59.87
70323;BME280;57735;56.264;43.898;2023-02-07T09:18:27;103081.88;;;-3.57;59.45
70323;BME280;57735;56.264;43.898;2023-02-07T09:21:03;103074.06;;;-3.55;59.25
70323;BME280;57735;56.264;43.898;2023-02-07T09:23:36;103074.91;;;-3.45;59.48
70323;BME280;57735;56.264;43.898;2023-02-07T09:26:08;103079.28;;;-3.41;58.90
70323;BME280;57735;56.264;43.898;2023-02-07T09:28:39;103077.56;;;-3.38;59.11
70323;BME280;57735;56.264;43.898;2023-02-07T09:31:12;103078.41;;;-3.33;58.97
70323;BME280;57735;56.264;43.898;2023-02-07T09:33:47;103070.59;;;-3.36;58.83
70323;BME280;57735;56.264;43.898;2023-02-07T09:36:24;103069.72;;;-3.44;59.07
70323;BME280;57735;56.264;43.898;2023-02-07T09:38:56;103074.06;;;-3.54;59.12
70323;BME280;57735;56.264;43.898;2023-02-07T09:44:12;103066.19;;;-3.76;58.75
70323;BME280;57735;56.264;43.898;2023-02-07T09:49:39;103068.72;;;-3.99;59.94
70323;BME280;57735;56.264;43.898;2023-02-07T09:52:17;103064.38;;;-3.99;60.87
70323;BME280;57735;56.264;43.898;2023-02-07T09:54:51;103066.97;;;-4.08;60.09
70323;BME280;57735;56.264;43.898;2023-02-07T10:00:19;103073.91;;;-4.08;58.84
70323;BME280;57735;56.264;43.898;2023-02-07T10:05:42;103070.50;;;-3.83;58.87
70323;BME280;57735;56.264;43.898;2023-02-07T10:08:15;103071.41;;;-3.64;58.70
70323;BME280;57735;56.264;43.898;2023-02-07T10:20:37;103072.31;;;-2.89;55.70
70323;BME280;57735;56.264;43.898;2023-02-07T10:26:29;103075.81;;;-3.02;55.68
70323;BME280;57735;56.264;43.898;2023-02-07T10:32:00;103071.47;;;-3.12;55.41
70323;BME280;57735;56.264;43.898;2023-02-07T10:34:36;103077.56;;;-3.23;55.60
70323;BME280;57735;56.264;43.898;2023-02-07T10:37:20;103083.63;;;-3.33;55.81
70323;BME280;57735;56.264;43.898;2023-02-07T10:40:07;103085.34;;;-3.35;55.75
70323;BME280;57735;56.264;43.898;2023-02-07T10:42:44;103089.69;;;-3.34;55.46
70323;BME280;57735;56.264;43.898;2023-02-07T10:45:18;103090.56;;;-3.32;55.75
70323;BME280;57735;56.264;43.898;2023-02-07T10:47:49;103089.72;;;-3.38;56.46
70323;BME280;57735;56.264;43.898;2023-02-07T10:50:21;103085.34;;;-3.35;56.54
70323;BME280;57735;56.264;43.898;2023-02-07T10:52:54;103087.09;;;-3.31;56.57
70323;BME280;57735;56.264;43.898;2023-02-07T10:58:06;103083.66;;;-3.21;56.69
70323;BME280;57735;56.264;43.898;2023-02-07T11:00:37;103091.47;;;-3.11;56.17
70323;BME280;57735;56.264;43.898;2023-02-07T11:03:15;103090.59;;;-3.10;55.26
70323;BME280;57735;56.264;43.898;2023-02-07T11:05:58;103095.81;;;-3.20;55.25
70323;BME280;57735;56.264;43.898;2023-02-07T11:08:32;103095.78;;;-3.32;55.31
70323;BME280;57735;56.264;43.898;2023-02-07T11:13:51;103098.41;;;-3.36;55.97
70323;BME280;57735;56.264;43.898;2023-02-07T11:16:24;103102.75;;;-3.41;56.08
70323;BME280;57735;56.264;43.898;2023-02-07T11:19:01;103106.22;;;-3.44;55.78
70323;BME280;57735;56.264;43.898;2023-02-07T11:24:06;103103.59;;;-3.44;55.40
70323;BME280;57735;56.264;43.898;2023-02-07T11:29:43;103108.84;;;-3.39;54.64
70323;BME280;57735;56.264;43.898;2023-02-07T11:32:15;103103.63;;;-3.39;54.37
70323;BME280;57735;56.264;43.898;2023-02-07T11:37:31;103106.22;;;-3.35;54.59
70323;BME280;57735;56.264;43.898;2023-02-07T11:43:02;103099.28;;;-3.27;54.55
70323;BME280;57735;56.264;43.898;2023-02-07T11:45:38;103094.06;;;-3.30;54.99
70323;BME280;57735;56.264;43.898;2023-02-07T11:48:21;103083.63;;;-3.30;54.52
70323;BME280;57735;56.264;43.898;2023-02-07T11:50:58;103090.56;;;-3.32;54.14
70323;BME280;57735;56.264;43.898;2023-02-07T11:53:38;103074.94;;;-3.32;53.68
70323;BME280;57735;56.264;43.898;2023-02-07T11:56:23;103074.94;;;-3.29;54.46
70323;BME280;57735;56.264;43.898;2023-02-07T11:58:55;103073.19;;;-3.30;54.66
70323;BME280;57735;56.264;43.898;2023-02-07T12:01:29;103079.28;;;-3.29;54.64
70323;BME280;57735;56.264;43.898;2023-02-07T12:04:09;103072.31;;;-3.33;54.59
70323;BME280;57735;56.264;43.898;2023-02-07T12:06:55;103064.50;;;-3.42;54.84
70323;BME280;57735;56.264;43.898;2023-02-07T12:09:35;103063.63;;;-3.47;54.81
70323;BME280;57735;56.264;43.898;2023-02-07T12:14:59;103064.47;;;-3.65;54.64
70323;BME280;57735;56.264;43.898;2023-02-07T12:17:43;103060.13;;;-3.71;54.96
70323;BME280;57735;56.264;43.898;2023-02-07T12:20:23;103062.72;;;-3.77;55.46
70323;BME280;57735;56.264;43.898;2023-02-07T12:25:51;103067.88;;;-3.95;54.77
70323;BME280;57735;56.264;43.898;2023-02-07T12:28:36;103063.50;;;-4.01;54.99
70323;BME280;57735;56.264;43.898;2023-02-07T12:31:28;103058.28;;;-4.08;55.55
70323;BME280;57735;56.264;43.898;2023-02-07T12:34:19;103054.81;;;-4.10;55.19
70323;BME280;57735;56.264;43.898;2023-02-07T12:36:57;103050.44;;;-4.13;55.47
70323;BME280;57735;56.264;43.898;2023-02-07T12:39:42;103058.28;;;-4.11;55.20
70323;BME280;57735;56.264;43.898;2023-02-07T12:51:07;103060.78;;;-4.31;55.11
70323;BME280;57735;56.264;43.898;2023-02-07T12:57:10;103064.25;;;-4.40;55.53
70323;BME280;57735;56.264;43.898;2023-02-07T12:59:56;103057.25;;;-4.45;55.84
70323;BME280;57735;56.264;43.898;2023-02-07T13:05:24;103055.50;;;-4.52;55.72
70323;BME280;57735;56.264;43.898;2023-02-07T13:11:03;103049.41;;;-4.58;56.18
70323;BME280;57735;56.264;43.898;2023-02-07T13:16:40;103046.69;;;-4.76;56.38
70323;BME280;57735;56.264;43.898;2023-02-07T13:19:46;103052.69;;;-4.83;56.70
70323;BME280;57735;56.264;43.898;2023-02-07T13:25:32;103053.50;;;-4.93;56.44
70323;BME280;57735;56.264;43.898;2023-02-07T13:28:07;103059.56;;;-4.96;56.46
70323;BME280;57735;56.264;43.898;2023-02-07T13:30:41;103049.97;;;-5.01;56.79
70323;BME280;57735;56.264;43.898;2023-02-07T13:33:30;103064.69;;;-5.06;57.02
70323;BME280;57735;56.264;43.898;2023-02-07T13:39:02;103062.00;;;-5.15;57.18
70323;BME280;57735;56.264;43.898;2023-02-07T13:44:59;103055.84;;;-5.28;57.66
70323;BME280;57735;56.264;43.898;2023-02-07T13:47:39;103061.84;;;-5.34;57.47
70323;BME280;57735;56.264;43.898;2023-02-07T13:53:11;103076.59;;;-5.34;57.65
70323;BME280;57735;56.264;43.898;2023-02-07T13:55:59;103066.19;;;-5.37;58.17
70323;BME280;57735;56.264;43.898;2023-02-07T14:01:25;103073.97;;;-5.39;57.69
70323;BME280;57735;56.264;43.898;2023-02-07T14:12:37;103087.81;;;-5.40;58.56
70323;BME280;57735;56.264;43.898;2023-02-07T14:25:39;103108.47;;;-5.55;60.51
70323;BME280;57735;56.264;43.898;2023-02-07T14:28:20;103103.22;;;-5.58;60.45
70323;BME280;57735;56.264;43.898;2023-02-07T14:31:21;103104.06;;;-5.60;60.61
70323;BME280;57735;56.264;43.898;2023-02-07T14:34:13;103104.03;;;-5.64;60.74
70323;BME280;57735;56.264;43.898;2023-02-07T14:36:47;103106.56;;;-5.68;61.09
70323;BME280;57735;56.264;43.898;2023-02-07T14:41:50;103121.22;;;-5.75;61.42
70323;BME280;57735;56.264;43.898;2023-02-07T14:44:33;103127.31;;;-5.74;60.83
70323;BME280;57735;56.264;43.898;2023-02-07T14:47:07;103129.91;;;-5.74;60.73
70323;BME280;57735;56.264;43.898;2023-02-07T14:49:47;103137.69;;;-5.74;60.91
70323;BME280;57735;56.264;43.898;2023-02-07T14:52:27;103140.34;;;-5.71;60.78
70323;BME280;57735;56.264;43.898;2023-02-07T14:55:06;103133.38;;;-5.72;60.71
70323;BME280;57735;56.264;43.898;2023-02-07T14:57:53;103143.75;;;-5.74;60.63
70323;BME280;57735;56.264;43.898;2023-02-07T15:00:48;103137.69;;;-5.74;60.94
70323;BME280;57735;56.264;43.898;2023-02-07T15:03:20;103139.41;;;-5.76;61.00
70323;BME280;57735;56.264;43.898;2023-02-07T15:06:02;103141.09;;;-5.78;61.09
70323;BME280;57735;56.264;43.898;2023-02-07T15:08:33;103141.94;;;-5.79;61.13
70323;BME280;57735;56.264;43.898;2023-02-07T15:11:06;103147.09;;;-5.82;61.14
70323;BME280;57735;56.264;43.898;2023-02-07T15:13:46;103152.25;;;-5.90;61.26
70323;BME280;57735;56.264;43.898;2023-02-07T15:16:32;103144.34;;;-5.97;61.09
70323;BME280;57735;56.264;43.898;2023-02-07T15:19:32;103140.88;;;-6.00;61.91
70323;BME280;57735;56.264;43.898;2023-02-07T15:22:05;103148.59;;;-6.03;61.68
70323;BME280;57735;56.264;43.898;2023-02-07T15:24:38;103143.38;;;-6.09;61.99
70323;BME280;57735;56.264;43.898;2023-02-07T15:27:20;103153.72;;;-6.10;62.12
70323;BME280;57735;56.264;43.898;2023-02-07T15:29:58;103148.44;;;-6.16;62.92
70323;BME280;57735;56.264;43.898;2023-02-07T15:32:31;103139.75;;;-6.18;63.09
70323;BME280;57735;56.264;43.898;2023-02-07T15:35:35;103144.06;;;-6.22;62.71
70323;BME280;57735;56.264;43.898;2023-02-07T15:38:20;103144.91;;;-6.23;62.95
70323;BME280;57735;56.264;43.898;2023-02-07T15:40:54;103150.13;;;-6.21;62.94
70323;BME280;57735;56.264;43.898;2023-02-07T15:43:33;103151.84;;;-6.19;62.65
70323;BME280;57735;56.264;43.898;2023-02-07T15:46:10;103151.06;;;-6.15;62.95
70323;BME280;57735;56.264;43.898;2023-02-07T15:48:50;103149.41;;;-6.10;62.43